sensor_id;sensor_type;location;lat;lon;timestamp;temperature;humidity
10417;DHT22;62605;49.432;8.680;2022-12-18T00:01:15;-7.20;1.00
10417;DHT22;62605;49.432;8.680;2022-12-18T00:03:42;-7.30;1.00
10417;DHT22;62605;49.432;8.680;2022-12-18T00:06:10;-7.40;99.90
10417;DHT22;62605;49.432;8.680;2022-12-18T00:08:37;-7.20;1.00
10417;DHT22;62605;49.432;8.680;2022-12-18T00:11:05;-7.30;1.00
10417;DHT22;62605;49.432;8.680;2022-12-18T00:13:33;-7.40;1.00
10417;DHT22;62605;49.432;8.680;2022-12-18T00:16:02;-7.20;5.50
10417;DHT22;62605;49.432;8.680;2022-12-18T00:18:30;-7.30;1.00
10417;DHT22;62605;49.432;8.680;2022-12-18T00:20:59;-7.00;20.60
10417;DHT22;62605;49.432;8.680;2022-12-18T00:23:26;-7.00;1.00
10417;DHT22;62605;49.432;8.680;2022-12-18T00:25:53;-6.90;1.00
10417;DHT22;62605;49.432;8.680;2022-12-18T00:28:20;-6.90;1.00
10417;DHT22;62605;49.432;8.680;2022-12-18T00:30:49;-6.90;1.00
10417;DHT22;62605;49.432;8.680;2022-12-18T00:33:17;-7.10;1.00
10417;DHT22;62605;49.432;8.680;2022-12-18T00:35:44;-7.00;1.00
10417;DHT22;62605;49.432;8.680;2022-12-18T00:38:11;-7.00;1.00
10417;DHT22;62605;49.432;8.680;2022-12-18T00:40:38;-7.10;1.00
10417;DHT22;62605;49.432;8.680;2022-12-18T00:43:05;-7.20;99.90
10417;DHT22;62605;49.432;8.680;2022-12-18T00:45:32;-7.30;1.00
10417;DHT22;62605;49.432;8.680;2022-12-18T00:48:00;-7.20;1.00
10417;DHT22;62605;49.432;8.680;2022-12-18T00:50:27;-7.20;1.00
10417;DHT22;62605;49.432;8.680;2022-12-18T00:52:54;-7.10;1.00
10417;DHT22;62605;49.432;8.680;2022-12-18T00:55:21;-7.00;1.00
10417;DHT22;62605;49.432;8.680;2022-12-18T00:57:50;-7.00;99.90
10417;DHT22;62605;49.432;8.680;2022-12-18T01:00:18;-7.30;99.90
10417;DHT22;62605;49.432;8.680;2022-12-18T01:02:44;-7.20;1.00
10417;DHT22;62605;49.432;8.680;2022-12-18T01:05:13;-7.20;1.00
10417;DHT22;62605;49.432;8.680;2022-12-18T01:07:41;-7.00;1.00
10417;DHT22;62605;49.432;8.680;2022-12-18T01:10:10;-7.10;1.00
10417;DHT22;62605;49.432;8.680;2022-12-18T01:12:38;-7.20;99.90
10417;DHT22;62605;49.432;8.680;2022-12-18T01:15:06;-7.40;99.90
10417;DHT22;62605;49.432;8.680;2022-12-18T01:17:34;-7.40;99.90
10417;DHT22;62605;49.432;8.680;2022-12-18T01:20:01;-7.40;1.00
10417;DHT22;62605;49.432;8.680;2022-12-18T01:22:30;-7.20;1.00
10417;DHT22;62605;49.432;8.680;2022-12-18T01:24:57;-7.10;99.90
10417;DHT22;62605;49.432;8.680;2022-12-18T01:27:24;-7.10;1.00
10417;DHT22;62605;49.432;8.680;2022-12-18T01:29:51;-7.10;99.90
10417;DHT22;62605;49.432;8.680;2022-12-18T01:32:18;-7.10;96.30
10417;DHT22;62605;49.432;8.680;2022-12-18T01:34:45;-7.10;99.90
10417;DHT22;62605;49.432;8.680;2022-12-18T01:37:12;-7.10;99.90
10417;DHT22;62605;49.432;8.680;2022-12-18T01:39:41;-7.10;1.00
10417;DHT22;62605;49.432;8.680;2022-12-18T01:42:10;-7.10;1.00
10417;DHT22;62605;49.432;8.680;2022-12-18T01:45:02;-7.10;1.00
10417;DHT22;62605;49.432;8.680;2022-12-18T01:47:33;-7.10;99.90
10417;DHT22;62605;49.432;8.680;2022-12-18T01:50:06;-7.10;1.00
10417;DHT22;62605;49.432;8.680;2022-12-18T01:52:34;-6.90;1.00
10417;DHT22;62605;49.432;8.680;2022-12-18T01:55:06;-7.10;99.90
10417;DHT22;62605;49.432;8.680;2022-12-18T01:57:33;-7.10;1.00
10417;DHT22;62605;49.432;8.680;2022-12-18T02:00:04;-7.10;1.00
10417;DHT22;62605;49.432;8.680;2022-12-18T02:02:31;-7.20;99.90
10417;DHT22;62605;49.432;8.680;2022-12-18T02:04:59;-7.30;1.00
10417;DHT22;62605;49.432;8.680;2022-12-18T02:07:34;-7.30;1.00
10417;DHT22;62605;49.432;8.680;2022-12-18T02:10:07;-7.30;99.90
10417;DHT22;62605;49.432;8.680;2022-12-18T02:12:42;-7.30;99.90
10417;DHT22;62605;49.432;8.680;2022-12-18T02:15:15;-7.30;99.90
10417;DHT22;62605;49.432;8.680;2022-12-18T02:17:47;-7.40;99.90
10417;DHT22;62605;49.432;8.680;2022-12-18T02:20:18;-7.40;1.00
10417;DHT22;62605;49.432;8.680;2022-12-18T02:22:58;-7.40;1.00
10417;DHT22;62605;49.432;8.680;2022-12-18T02:26:02;-7.30;1.00
10417;DHT22;62605;49.432;8.680;2022-12-18T02:28:36;-7.40;1.00
10417;DHT22;62605;49.432;8.680;2022-12-18T02:31:06;-7.40;1.00
10417;DHT22;62605;49.432;8.680;2022-12-18T02:33:36;-7.20;1.00
10417;DHT22;62605;49.432;8.680;2022-12-18T02:36:04;-7.30;1.00
10417;DHT22;62605;49.432;8.680;2022-12-18T02:38:32;-7.30;7.10
10417;DHT22;62605;49.432;8.680;2022-12-18T02:41:02;-7.50;99.90
10417;DHT22;62605;49.432;8.680;2022-12-18T02:43:30;-7.50;99.90
10417;DHT22;62605;49.432;8.680;2022-12-18T02:45:59;-7.40;99.90
10417;DHT22;62605;49.432;8.680;2022-12-18T02:48:30;-7.30;1.00
10417;DHT22;62605;49.432;8.680;2022-12-18T02:51:03;-7.30;1.00
10417;DHT22;62605;49.432;8.680;2022-12-18T02:53:36;-7.60;99.90
10417;DHT22;62605;49.432;8.680;2022-12-18T02:56:11;-7.50;1.00
10417;DHT22;62605;49.432;8.680;2022-12-18T02:58:45;-7.50;1.00
10417;DHT22;62605;49.432;8.680;2022-12-18T03:01:16;-7.50;1.00
10417;DHT22;62605;49.432;8.680;2022-12-18T03:03:49;-7.50;1.00
10417;DHT22;62605;49.432;8.680;2022-12-18T03:06:23;-7.60;1.00
10417;DHT22;62605;49.432;8.680;2022-12-18T03:08:56;-7.60;1.00
10417;DHT22;62605;49.432;8.680;2022-12-18T03:11:28;-7.60;1.00
10417;DHT22;62605;49.432;8.680;2022-12-18T03:14:13;-7.70;1.00
10417;DHT22;62605;49.432;8.680;2022-12-18T03:16:43;-7.80;99.90
10417;DHT22;62605;49.432;8.680;2022-12-18T03:19:15;-7.80;99.90
10417;DHT22;62605;49.432;8.680;2022-12-18T03:21:47;-7.60;99.90
10417;DHT22;62605;49.432;8.680;2022-12-18T03:24:15;-7.60;99.90
10417;DHT22;62605;49.432;8.680;2022-12-18T03:26:47;-7.60;1.00
10417;DHT22;62605;49.432;8.680;2022-12-18T03:29:19;-7.60;1.00
10417;DHT22;62605;49.432;8.680;2022-12-18T03:31:51;-7.70;1.00
10417;DHT22;62605;49.432;8.680;2022-12-18T03:34:23;-7.50;1.00
10417;DHT22;62605;49.432;8.680;2022-12-18T03:36:51;-7.60;99.90
10417;DHT22;62605;49.432;8.680;2022-12-18T03:39:18;-7.70;1.00
10417;DHT22;62605;49.432;8.680;2022-12-18T03:41:52;-7.70;77.50
10417;DHT22;62605;49.432;8.680;2022-12-18T03:44:23;-7.70;99.90
10417;DHT22;62605;49.432;8.680;2022-12-18T03:46:57;-7.80;1.00
10417;DHT22;62605;49.432;8.680;2022-12-18T03:49:27;-7.80;99.90
10417;DHT22;62605;49.432;8.680;2022-12-18T03:52:01;-7.90;1.00
10417;DHT22;62605;49.432;8.680;2022-12-18T03:54:31;-7.80;83.20
10417;DHT22;62605;49.432;8.680;2022-12-18T03:57:09;-7.80;99.90
10417;DHT22;62605;49.432;8.680;2022-12-18T03:59:38;-7.80;1.00
10417;DHT22;62605;49.432;8.680;2022-12-18T04:02:07;-7.90;1.00
10417;DHT22;62605;49.432;8.680;2022-12-18T04:04:35;-7.80;1.00
10417;DHT22;62605;49.432;8.680;2022-12-18T04:07:04;-7.90;99.90
10417;DHT22;62605;49.432;8.680;2022-12-18T04:09:33;-8.00;1.00
10417;DHT22;62605;49.432;8.680;2022-12-18T04:12:02;-8.00;99.90
10417;DHT22;62605;49.432;8.680;2022-12-18T04:14:28;-8.00;1.00
10417;DHT22;62605;49.432;8.680;2022-12-18T04:16:55;-7.90;99.90
10417;DHT22;62605;49.432;8.680;2022-12-18T04:19:22;-8.00;99.90
10417;DHT22;62605;49.432;8.680;2022-12-18T04:21:49;-7.80;99.90
10417;DHT22;62605;49.432;8.680;2022-12-18T04:24:16;-7.80;99.90
10417;DHT22;62605;49.432;8.680;2022-12-18T04:26:43;-7.80;99.90
10417;DHT22;62605;49.432;8.680;2022-12-18T04:29:12;-7.70;1.00
10417;DHT22;62605;49.432;8.680;2022-12-18T04:31:39;-7.90;99.90
10417;DHT22;62605;49.432;8.680;2022-12-18T04:34:06;-7.90;99.90
10417;DHT22;62605;49.432;8.680;2022-12-18T04:36:33;-8.00;99.90
10417;DHT22;62605;49.432;8.680;2022-12-18T04:39:00;-8.00;99.90
10417;DHT22;62605;49.432;8.680;2022-12-18T04:41:27;-8.00;58.80
10417;DHT22;62605;49.432;8.680;2022-12-18T04:43:54;-7.90;99.90
10417;DHT22;62605;49.432;8.680;2022-12-18T04:46:22;-8.20;1.00
10417;DHT22;62605;49.432;8.680;2022-12-18T04:48:49;-8.20;27.00
10417;DHT22;62605;49.432;8.680;2022-12-18T04:51:16;-8.00;99.90
10417;DHT22;62605;49.432;8.680;2022-12-18T04:53:44;-8.20;99.90
10417;DHT22;62605;49.432;8.680;2022-12-18T04:56:12;-8.30;13.00
10417;DHT22;62605;49.432;8.680;2022-12-18T04:58:43;-8.30;99.90
10417;DHT22;62605;49.432;8.680;2022-12-18T05:01:13;-8.30;99.90
10417;DHT22;62605;49.432;8.680;2022-12-18T05:03:44;-8.30;99.90
10417;DHT22;62605;49.432;8.680;2022-12-18T05:06:11;-8.20;99.90
10417;DHT22;62605;49.432;8.680;2022-12-18T05:08:39;-8.10;99.90
10417;DHT22;62605;49.432;8.680;2022-12-18T05:11:11;-8.20;99.90
10417;DHT22;62605;49.432;8.680;2022-12-18T05:13:39;-8.20;99.90
10417;DHT22;62605;49.432;8.680;2022-12-18T05:16:08;-8.10;99.90
10417;DHT22;62605;49.432;8.680;2022-12-18T05:18:35;-7.90;99.90
10417;DHT22;62605;49.432;8.680;2022-12-18T05:21:05;-8.10;1.00
10417;DHT22;62605;49.432;8.680;2022-12-18T05:23:34;-8.10;1.00
10417;DHT22;62605;49.432;8.680;2022-12-18T05:26:04;-8.00;1.00
10417;DHT22;62605;49.432;8.680;2022-12-18T05:28:35;-7.90;99.90
10417;DHT22;62605;49.432;8.680;2022-12-18T05:31:04;-7.90;99.90
10417;DHT22;62605;49.432;8.680;2022-12-18T05:33:34;-8.00;99.90
10417;DHT22;62605;49.432;8.680;2022-12-18T05:36:06;-8.00;1.00
10417;DHT22;62605;49.432;8.680;2022-12-18T05:38:35;-7.90;99.90
10417;DHT22;62605;49.432;8.680;2022-12-18T05:41:05;-7.90;99.90
10417;DHT22;62605;49.432;8.680;2022-12-18T05:43:34;-8.00;1.00
10417;DHT22;62605;49.432;8.680;2022-12-18T05:46:05;-8.00;99.90
10417;DHT22;62605;49.432;8.680;2022-12-18T05:48:34;-8.10;1.00
10417;DHT22;62605;49.432;8.680;2022-12-18T05:51:08;-8.00;1.00
10417;DHT22;62605;49.432;8.680;2022-12-18T05:53:37;-8.00;24.90
10417;DHT22;62605;49.432;8.680;2022-12-18T05:56:10;-8.10;1.00
10417;DHT22;62605;49.432;8.680;2022-12-18T05:58:38;-8.10;99.90
10417;DHT22;62605;49.432;8.680;2022-12-18T06:01:10;-8.20;99.90
10417;DHT22;62605;49.432;8.680;2022-12-18T06:03:39;-8.30;99.90
10417;DHT22;62605;49.432;8.680;2022-12-18T06:06:19;-8.30;1.00
10417;DHT22;62605;49.432;8.680;2022-12-18T06:08:47;-8.20;1.00
10417;DHT22;62605;49.432;8.680;2022-12-18T06:11:18;-8.40;99.90
10417;DHT22;62605;49.432;8.680;2022-12-18T06:13:46;-8.20;1.00
10417;DHT22;62605;49.432;8.680;2022-12-18T06:16:14;-8.30;1.00
10417;DHT22;62605;49.432;8.680;2022-12-18T06:18:41;-8.30;1.00
10417;DHT22;62605;49.432;8.680;2022-12-18T06:21:09;-8.30;1.00
10417;DHT22;62605;49.432;8.680;2022-12-18T06:23:38;-8.10;1.00
10417;DHT22;62605;49.432;8.680;2022-12-18T06:26:06;-8.20;1.00
10417;DHT22;62605;49.432;8.680;2022-12-18T06:28:33;-8.10;1.00
10417;DHT22;62605;49.432;8.680;2022-12-18T06:31:02;-8.10;1.00
10417;DHT22;62605;49.432;8.680;2022-12-18T06:33:29;-8.10;1.00
10417;DHT22;62605;49.432;8.680;2022-12-18T06:36:00;-8.20;99.90
10417;DHT22;62605;49.432;8.680;2022-12-18T06:38:28;-8.10;1.00
10417;DHT22;62605;49.432;8.680;2022-12-18T06:40:56;-8.20;99.90
10417;DHT22;62605;49.432;8.680;2022-12-18T06:43:23;-8.20;99.90
10417;DHT22;62605;49.432;8.680;2022-12-18T06:45:57;-8.30;1.00
10417;DHT22;62605;49.432;8.680;2022-12-18T06:48:26;-8.20;1.00
10417;DHT22;62605;49.432;8.680;2022-12-18T06:50:53;-8.20;1.00
10417;DHT22;62605;49.432;8.680;2022-12-18T06:53:20;-8.20;1.00
10417;DHT22;62605;49.432;8.680;2022-12-18T06:55:49;-8.20;1.00
10417;DHT22;62605;49.432;8.680;2022-12-18T06:58:17;-8.30;1.00
10417;DHT22;62605;49.432;8.680;2022-12-18T07:00:44;-8.40;1.00
10417;DHT22;62605;49.432;8.680;2022-12-18T07:03:12;-8.40;1.00
10417;DHT22;62605;49.432;8.680;2022-12-18T07:05:40;-8.20;1.00
10417;DHT22;62605;49.432;8.680;2022-12-18T07:08:08;-8.20;1.00
10417;DHT22;62605;49.432;8.680;2022-12-18T07:10:41;-8.10;1.00
10417;DHT22;62605;49.432;8.680;2022-12-18T07:13:10;-8.10;1.00
10417;DHT22;62605;49.432;8.680;2022-12-18T07:15:39;-8.20;99.90
10417;DHT22;62605;49.432;8.680;2022-12-18T07:18:06;-8.30;99.90
10417;DHT22;62605;49.432;8.680;2022-12-18T07:20:33;-8.40;99.90
10417;DHT22;62605;49.432;8.680;2022-12-18T07:23:02;-8.40;1.00
10417;DHT22;62605;49.432;8.680;2022-12-18T07:25:29;-8.30;1.00
10417;DHT22;62605;49.432;8.680;2022-12-18T07:27:56;-8.20;1.00
10417;DHT22;62605;49.432;8.680;2022-12-18T07:30:23;-8.20;1.00
10417;DHT22;62605;49.432;8.680;2022-12-18T07:32:54;-8.30;99.90
10417;DHT22;62605;49.432;8.680;2022-12-18T07:35:21;-8.40;99.90
10417;DHT22;62605;49.432;8.680;2022-12-18T07:37:50;-8.30;99.90
10417;DHT22;62605;49.432;8.680;2022-12-18T07:40:17;-8.40;99.90
10417;DHT22;62605;49.432;8.680;2022-12-18T07:42:44;-8.30;99.90
10417;DHT22;62605;49.432;8.680;2022-12-18T07:45:11;-8.50;99.90
10417;DHT22;62605;49.432;8.680;2022-12-18T07:47:43;-8.40;99.90
10417;DHT22;62605;49.432;8.680;2022-12-18T07:50:17;-8.50;99.90
10417;DHT22;62605;49.432;8.680;2022-12-18T07:52:50;-8.40;1.00
10417;DHT22;62605;49.432;8.680;2022-12-18T07:55:17;-8.20;1.00
10417;DHT22;62605;49.432;8.680;2022-12-18T07:57:44;-8.30;1.00
10417;DHT22;62605;49.432;8.680;2022-12-18T08:00:13;-8.40;99.90
10417;DHT22;62605;49.432;8.680;2022-12-18T08:02:41;-8.20;99.90
10417;DHT22;62605;49.432;8.680;2022-12-18T08:05:09;-8.30;99.90
10417;DHT22;62605;49.432;8.680;2022-12-18T08:07:38;-8.40;6.40
10417;DHT22;62605;49.432;8.680;2022-12-18T08:10:08;-8.40;99.90
10417;DHT22;62605;49.432;8.680;2022-12-18T08:12:35;-8.20;99.90
10417;DHT22;62605;49.432;8.680;2022-12-18T08:15:02;-8.10;99.90
10417;DHT22;62605;49.432;8.680;2022-12-18T08:17:30;-8.20;99.90
10417;DHT22;62605;49.432;8.680;2022-12-18T08:19:57;-8.00;99.90
10417;DHT22;62605;49.432;8.680;2022-12-18T08:22:24;-8.10;99.90
10417;DHT22;62605;49.432;8.680;2022-12-18T08:24:53;-8.00;1.00
10417;DHT22;62605;49.432;8.680;2022-12-18T08:27:20;-8.00;99.90
10417;DHT22;62605;49.432;8.680;2022-12-18T08:29:48;-8.00;99.90
10417;DHT22;62605;49.432;8.680;2022-12-18T08:32:15;-8.00;1.00
10417;DHT22;62605;49.432;8.680;2022-12-18T08:34:42;-7.90;1.00
10417;DHT22;62605;49.432;8.680;2022-12-18T08:37:09;-8.10;99.90
10417;DHT22;62605;49.432;8.680;2022-12-18T08:39:36;-8.00;1.00
10417;DHT22;62605;49.432;8.680;2022-12-18T08:42:04;-8.00;99.90
10417;DHT22;62605;49.432;8.680;2022-12-18T08:44:49;-8.00;1.00
10417;DHT22;62605;49.432;8.680;2022-12-18T08:47:16;-8.00;99.90
10417;DHT22;62605;49.432;8.680;2022-12-18T08:49:43;-8.00;99.90
10417;DHT22;62605;49.432;8.680;2022-12-18T08:52:10;-7.90;1.00
10417;DHT22;62605;49.432;8.680;2022-12-18T08:54:37;-7.70;99.90
10417;DHT22;62605;49.432;8.680;2022-12-18T08:57:06;-7.70;99.90
10417;DHT22;62605;49.432;8.680;2022-12-18T08:59:33;-7.50;1.00
10417;DHT22;62605;49.432;8.680;2022-12-18T09:02:01;-7.50;99.90
10417;DHT22;62605;49.432;8.680;2022-12-18T09:04:29;-7.60;1.00
10417;DHT22;62605;49.432;8.680;2022-12-18T09:07:00;-7.30;1.00
10417;DHT22;62605;49.432;8.680;2022-12-18T09:09:28;-7.00;1.00
10417;DHT22;62605;49.432;8.680;2022-12-18T09:11:55;-6.90;99.90
10417;DHT22;62605;49.432;8.680;2022-12-18T09:14:23;-6.50;1.00
10417;DHT22;62605;49.432;8.680;2022-12-18T09:16:50;-6.30;99.90
10417;DHT22;62605;49.432;8.680;2022-12-18T09:19:17;-5.90;99.90
10417;DHT22;62605;49.432;8.680;2022-12-18T09:21:44;-5.30;1.00
10417;DHT22;62605;49.432;8.680;2022-12-18T09:24:12;-4.90;1.00
10417;DHT22;62605;49.432;8.680;2022-12-18T09:26:40;-4.50;1.00
10417;DHT22;62605;49.432;8.680;2022-12-18T09:29:07;-4.40;1.00
10417;DHT22;62605;49.432;8.680;2022-12-18T09:31:36;-4.30;1.00
10417;DHT22;62605;49.432;8.680;2022-12-18T09:34:06;-4.30;96.00
10417;DHT22;62605;49.432;8.680;2022-12-18T09:36:34;-4.10;1.00
10417;DHT22;62605;49.432;8.680;2022-12-18T09:39:01;-4.20;28.60
10417;DHT22;62605;49.432;8.680;2022-12-18T09:41:43;-3.90;99.90
10417;DHT22;62605;49.432;8.680;2022-12-18T09:44:16;-3.50;93.30
10417;DHT22;62605;49.432;8.680;2022-12-18T09:46:49;-3.70;99.90
10417;DHT22;62605;49.432;8.680;2022-12-18T09:49:23;-3.80;99.90
10417;DHT22;62605;49.432;8.680;2022-12-18T09:51:55;-3.70;99.90
10417;DHT22;62605;49.432;8.680;2022-12-18T09:54:26;-3.80;1.00
10417;DHT22;62605;49.432;8.680;2022-12-18T09:57:04;-3.90;96.40
10417;DHT22;62605;49.432;8.680;2022-12-18T09:59:35;-4.30;1.00
10417;DHT22;62605;49.432;8.680;2022-12-18T10:02:15;-4.80;99.90
10417;DHT22;62605;49.432;8.680;2022-12-18T10:04:42;-5.30;99.90
10417;DHT22;62605;49.432;8.680;2022-12-18T10:07:14;-5.70;1.00
10417;DHT22;62605;49.432;8.680;2022-12-18T10:09:46;-5.70;99.90
10417;DHT22;62605;49.432;8.680;2022-12-18T10:12:22;-5.70;1.00
10417;DHT22;62605;49.432;8.680;2022-12-18T10:14:55;-5.70;11.90
10417;DHT22;62605;49.432;8.680;2022-12-18T10:17:30;-5.90;1.00
10417;DHT22;62605;49.432;8.680;2022-12-18T10:20:02;-5.80;1.00
10417;DHT22;62605;49.432;8.680;2022-12-18T10:22:41;-5.60;1.00
10417;DHT22;62605;49.432;8.680;2022-12-18T10:25:19;-5.40;99.90
10417;DHT22;62605;49.432;8.680;2022-12-18T10:27:50;-5.60;1.00
10417;DHT22;62605;49.432;8.680;2022-12-18T10:30:20;-5.60;1.00
10417;DHT22;62605;49.432;8.680;2022-12-18T10:32:49;-5.50;99.90
10417;DHT22;62605;49.432;8.680;2022-12-18T10:35:19;-5.30;99.90
10417;DHT22;62605;49.432;8.680;2022-12-18T10:38:07;-5.10;1.00
10417;DHT22;62605;49.432;8.680;2022-12-18T10:40:51;-5.10;1.00
10417;DHT22;62605;49.432;8.680;2022-12-18T10:43:25;-4.70;1.00
10417;DHT22;62605;49.432;8.680;2022-12-18T10:46:13;-4.60;1.00
10417;DHT22;62605;49.432;8.680;2022-12-18T10:48:52;-4.60;99.90
10417;DHT22;62605;49.432;8.680;2022-12-18T10:51:21;-4.60;1.00
10417;DHT22;62605;49.432;8.680;2022-12-18T10:53:54;-4.40;99.90
10417;DHT22;62605;49.432;8.680;2022-12-18T10:56:22;-4.00;1.00
10417;DHT22;62605;49.432;8.680;2022-12-18T10:58:56;-3.30;1.00
10417;DHT22;62605;49.432;8.680;2022-12-18T11:01:24;-3.00;1.00
10417;DHT22;62605;49.432;8.680;2022-12-18T11:04:02;-2.70;99.90
10417;DHT22;62605;49.432;8.680;2022-12-18T11:06:34;-2.50;99.90
10417;DHT22;62605;49.432;8.680;2022-12-18T11:09:02;-2.50;99.90
10417;DHT22;62605;49.432;8.680;2022-12-18T11:11:31;-2.50;1.00
10417;DHT22;62605;49.432;8.680;2022-12-18T11:14:02;-2.40;99.90
10417;DHT22;62605;49.432;8.680;2022-12-18T11:16:33;-2.20;1.00
10417;DHT22;62605;49.432;8.680;2022-12-18T11:19:19;-2.60;62.80
10417;DHT22;62605;49.432;8.680;2022-12-18T11:21:48;-3.30;99.90
10417;DHT22;62605;49.432;8.680;2022-12-18T11:24:22;-3.60;1.00
10417;DHT22;62605;49.432;8.680;2022-12-18T11:26:53;-3.70;33.50
10417;DHT22;62605;49.432;8.680;2022-12-18T11:29:24;-3.50;99.90
10417;DHT22;62605;49.432;8.680;2022-12-18T11:32:27;-3.20;99.90
10417;DHT22;62605;49.432;8.680;2022-12-18T11:35:04;-3.10;1.00
10417;DHT22;62605;49.432;8.680;2022-12-18T11:37:36;-3.40;1.00
10417;DHT22;62605;49.432;8.680;2022-12-18T11:40:09;-3.70;1.00
10417;DHT22;62605;49.432;8.680;2022-12-18T11:45:23;-3.50;99.90
10417;DHT22;62605;49.432;8.680;2022-12-18T11:47:57;-3.80;99.90
10417;DHT22;62605;49.432;8.680;2022-12-18T11:50:40;-3.50;99.90
10417;DHT22;62605;49.432;8.680;2022-12-18T11:53:11;-3.70;1.00
10417;DHT22;62605;49.432;8.680;2022-12-18T11:55:47;-3.30;99.90
10417;DHT22;62605;49.432;8.680;2022-12-18T11:58:32;-3.40;99.90
10417;DHT22;62605;49.432;8.680;2022-12-18T12:01:13;-3.30;99.90
10417;DHT22;62605;49.432;8.680;2022-12-18T12:04:02;-3.30;1.00
10417;DHT22;62605;49.432;8.680;2022-12-18T12:06:48;-3.30;99.90
10417;DHT22;62605;49.432;8.680;2022-12-18T12:09:27;-3.40;99.90
10417;DHT22;62605;49.432;8.680;2022-12-18T12:12:10;-3.30;1.00
10417;DHT22;62605;49.432;8.680;2022-12-18T12:14:51;-2.70;99.90
10417;DHT22;62605;49.432;8.680;2022-12-18T12:17:30;-2.60;99.90
10417;DHT22;62605;49.432;8.680;2022-12-18T12:20:08;-2.20;99.90
10417;DHT22;62605;49.432;8.680;2022-12-18T12:22:48;-1.90;1.00
10417;DHT22;62605;49.432;8.680;2022-12-18T12:25:33;-1.70;1.00
10417;DHT22;62605;49.432;8.680;2022-12-18T12:28:32;-1.60;1.00
10417;DHT22;62605;49.432;8.680;2022-12-18T12:31:09;-1.60;1.00
10417;DHT22;62605;49.432;8.680;2022-12-18T12:33:47;-1.60;99.90
10417;DHT22;62605;49.432;8.680;2022-12-18T12:36:25;-1.50;99.90
10417;DHT22;62605;49.432;8.680;2022-12-18T12:39:02;-1.40;89.90
10417;DHT22;62605;49.432;8.680;2022-12-18T12:41:33;-1.40;99.90
10417;DHT22;62605;49.432;8.680;2022-12-18T12:44:24;-1.50;1.00
10417;DHT22;62605;49.432;8.680;2022-12-18T12:46:59;-1.40;99.90
10417;DHT22;62605;49.432;8.680;2022-12-18T12:49:32;-1.40;1.00
10417;DHT22;62605;49.432;8.680;2022-12-18T12:52:05;-1.40;1.00
10417;DHT22;62605;49.432;8.680;2022-12-18T12:54:41;-1.20;1.00
10417;DHT22;62605;49.432;8.680;2022-12-18T12:57:15;-1.20;1.00
10417;DHT22;62605;49.432;8.680;2022-12-18T12:59:51;-1.40;1.00
10417;DHT22;62605;49.432;8.680;2022-12-18T13:02:24;-1.30;1.00
10417;DHT22;62605;49.432;8.680;2022-12-18T13:05:00;-1.20;1.00
10417;DHT22;62605;49.432;8.680;2022-12-18T13:07:35;-1.20;1.00
10417;DHT22;62605;49.432;8.680;2022-12-18T13:10:28;-1.30;1.00
10417;DHT22;62605;49.432;8.680;2022-12-18T13:12:59;-1.30;1.00
10417;DHT22;62605;49.432;8.680;2022-12-18T13:15:34;-1.00;1.00
10417;DHT22;62605;49.432;8.680;2022-12-18T13:18:05;-1.30;1.00
10417;DHT22;62605;49.432;8.680;2022-12-18T13:20:34;-1.20;1.00
10417;DHT22;62605;49.432;8.680;2022-12-18T13:23:03;-1.20;1.00
10417;DHT22;62605;49.432;8.680;2022-12-18T13:25:47;-1.30;1.00
10417;DHT22;62605;49.432;8.680;2022-12-18T13:28:14;-1.10;1.00
10417;DHT22;62605;49.432;8.680;2022-12-18T13:30:48;-1.00;1.00
10417;DHT22;62605;49.432;8.680;2022-12-18T13:33:47;-1.10;1.00
10417;DHT22;62605;49.432;8.680;2022-12-18T13:36:24;-1.10;1.00
10417;DHT22;62605;49.432;8.680;2022-12-18T13:41:54;-1.10;1.00
10417;DHT22;62605;49.432;8.680;2022-12-18T13:45:01;-1.10;1.00
10417;DHT22;62605;49.432;8.680;2022-12-18T13:47:32;-1.10;1.00
10417;DHT22;62605;49.432;8.680;2022-12-18T13:50:00;-1.10;1.00
10417;DHT22;62605;49.432;8.680;2022-12-18T13:52:34;-1.00;1.00
10417;DHT22;62605;49.432;8.680;2022-12-18T13:55:05;-1.00;1.00
10417;DHT22;62605;49.432;8.680;2022-12-18T13:57:36;-1.10;1.00
10417;DHT22;62605;49.432;8.680;2022-12-18T14:00:24;-1.20;1.00
10417;DHT22;62605;49.432;8.680;2022-12-18T14:02:52;-1.10;1.00
10417;DHT22;62605;49.432;8.680;2022-12-18T14:05:22;-1.10;1.00
10417;DHT22;62605;49.432;8.680;2022-12-18T14:07:49;-1.10;1.00
10417;DHT22;62605;49.432;8.680;2022-12-18T14:10:17;-1.20;99.90
10417;DHT22;62605;49.432;8.680;2022-12-18T14:12:47;-1.10;1.00
10417;DHT22;62605;49.432;8.680;2022-12-18T14:15:29;-1.80;97.10
10417;DHT22;62605;49.432;8.680;2022-12-18T14:18:00;-2.30;1.00
10417;DHT22;62605;49.432;8.680;2022-12-18T14:20:30;-2.50;97.00
10417;DHT22;62605;49.432;8.680;2022-12-18T14:22:58;-2.40;1.00
10417;DHT22;62605;49.432;8.680;2022-12-18T14:25:26;-2.60;1.00
10417;DHT22;62605;49.432;8.680;2022-12-18T14:28:07;-2.90;99.90
10417;DHT22;62605;49.432;8.680;2022-12-18T14:30:39;-3.00;99.90
10417;DHT22;62605;49.432;8.680;2022-12-18T14:33:10;-3.00;99.90
10417;DHT22;62605;49.432;8.680;2022-12-18T14:35:41;-3.10;99.90
10417;DHT22;62605;49.432;8.680;2022-12-18T14:38:20;-2.90;99.90
10417;DHT22;62605;49.432;8.680;2022-12-18T14:40:52;-3.00;1.00
10417;DHT22;62605;49.432;8.680;2022-12-18T14:43:20;-3.00;1.00
10417;DHT22;62605;49.432;8.680;2022-12-18T14:45:48;-3.00;1.00
10417;DHT22;62605;49.432;8.680;2022-12-18T14:48:17;-2.50;1.00
10417;DHT22;62605;49.432;8.680;2022-12-18T14:50:44;-2.40;40.00
10417;DHT22;62605;49.432;8.680;2022-12-18T14:53:20;-2.10;1.00
10417;DHT22;62605;49.432;8.680;2022-12-18T14:55:50;-1.80;99.90
10417;DHT22;62605;49.432;8.680;2022-12-18T14:58:17;-1.60;94.40
10417;DHT22;62605;49.432;8.680;2022-12-18T15:00:46;-1.80;99.90
10417;DHT22;62605;49.432;8.680;2022-12-18T15:03:18;-2.10;1.00
10417;DHT22;62605;49.432;8.680;2022-12-18T15:05:45;-2.00;99.90
10417;DHT22;62605;49.432;8.680;2022-12-18T15:08:32;-2.00;1.00
10417;DHT22;62605;49.432;8.680;2022-12-18T15:11:02;-2.00;1.00
10417;DHT22;62605;49.432;8.680;2022-12-18T15:13:29;-1.80;99.90
10417;DHT22;62605;49.432;8.680;2022-12-18T15:16:00;-1.80;99.90
10417;DHT22;62605;49.432;8.680;2022-12-18T15:18:32;-1.60;1.00
10417;DHT22;62605;49.432;8.680;2022-12-18T15:21:08;-1.50;1.00
10417;DHT22;62605;49.432;8.680;2022-12-18T15:23:38;-1.30;1.00
10417;DHT22;62605;49.432;8.680;2022-12-18T15:26:13;-1.40;1.00
10417;DHT22;62605;49.432;8.680;2022-12-18T15:28:45;-1.50;1.00
10417;DHT22;62605;49.432;8.680;2022-12-18T15:31:27;-1.50;1.00
10417;DHT22;62605;49.432;8.680;2022-12-18T15:34:11;-1.40;1.00
10417;DHT22;62605;49.432;8.680;2022-12-18T15:36:39;-1.40;1.00
10417;DHT22;62605;49.432;8.680;2022-12-18T15:39:09;-1.50;1.00
10417;DHT22;62605;49.432;8.680;2022-12-18T15:41:37;-1.40;1.00
10417;DHT22;62605;49.432;8.680;2022-12-18T15:44:21;-1.50;1.00
10417;DHT22;62605;49.432;8.680;2022-12-18T15:46:49;-1.50;1.00
10417;DHT22;62605;49.432;8.680;2022-12-18T15:49:19;-1.50;1.00
10417;DHT22;62605;49.432;8.680;2022-12-18T15:51:50;-1.50;1.00
10417;DHT22;62605;49.432;8.680;2022-12-18T15:54:18;-1.50;1.00
10417;DHT22;62605;49.432;8.680;2022-12-18T15:57:08;-1.50;1.00
10417;DHT22;62605;49.432;8.680;2022-12-18T15:59:50;-1.50;1.00
10417;DHT22;62605;49.432;8.680;2022-12-18T16:02:22;-1.40;1.00
10417;DHT22;62605;49.432;8.680;2022-12-18T16:04:49;-1.40;1.00
10417;DHT22;62605;49.432;8.680;2022-12-18T16:07:16;-1.40;1.00
10417;DHT22;62605;49.432;8.680;2022-12-18T16:09:47;-1.30;1.00
10417;DHT22;62605;49.432;8.680;2022-12-18T16:12:16;-1.30;1.00